sensor_id;sensor_type;location;lat;lon;timestamp;P1;durP1;ratioP1;P2;durP2;ratioP2
4055;SDS011;2043;52.184;8.690;2022-11-02T00:01:20;15.17;;;3.27;;
4055;SDS011;2043;52.184;8.690;2022-11-02T00:03:50;7.90;;;2.30;;
4055;SDS011;2043;52.184;8.690;2022-11-02T00:06:17;13.50;;;2.77;;
4055;SDS011;2043;52.184;8.690;2022-11-02T00:08:44;12.83;;;2.73;;
4055;SDS011;2043;52.184;8.690;2022-11-02T00:11:11;15.17;;;2.60;;
4055;SDS011;2043;52.184;8.690;2022-11-02T00:13:38;9.70;;;2.53;;
4055;SDS011;2043;52.184;8.690;2022-11-02T00:16:06;9.30;;;2.57;;
4055;SDS011;2043;52.184;8.690;2022-11-02T00:18:36;13.20;;;3.50;;
4055;SDS011;2043;52.184;8.690;2022-11-02T00:21:04;17.80;;;3.00;;
4055;SDS011;2043;52.184;8.690;2022-11-02T00:23:31;13.37;;;3.20;;
4055;SDS011;2043;52.184;8.690;2022-11-02T00:25:59;11.53;;;3.37;;
4055;SDS011;2043;52.184;8.690;2022-11-02T00:28:28;15.00;;;3.03;;
4055;SDS011;2043;52.184;8.690;2022-11-02T00:30:56;9.53;;;2.57;;
4055;SDS011;2043;52.184;8.690;2022-11-02T00:33:23;11.67;;;2.70;;
4055;SDS011;2043;52.184;8.690;2022-11-02T00:35:50;17.63;;;2.70;;
4055;SDS011;2043;52.184;8.690;2022-11-02T00:38:17;11.80;;;2.30;;
4055;SDS011;2043;52.184;8.690;2022-11-02T00:40:44;14.03;;;3.10;;
4055;SDS011;2043;52.184;8.690;2022-11-02T00:43:11;14.40;;;3.17;;
4055;SDS011;2043;52.184;8.690;2022-11-02T00:45:38;12.20;;;2.43;;
4055;SDS011;2043;52.184;8.690;2022-11-02T00:48:05;9.43;;;2.80;;
4055;SDS011;2043;52.184;8.690;2022-11-02T00:50:32;11.30;;;2.73;;
4055;SDS011;2043;52.184;8.690;2022-11-02T00:52:59;13.70;;;2.80;;
4055;SDS011;2043;52.184;8.690;2022-11-02T00:55:26;13.60;;;3.10;;
4055;SDS011;2043;52.184;8.690;2022-11-02T00:57:53;16.63;;;2.70;;
4055;SDS011;2043;52.184;8.690;2022-11-02T01:00:20;9.10;;;2.60;;
4055;SDS011;2043;52.184;8.690;2022-11-02T01:02:46;18.47;;;3.30;;
4055;SDS011;2043;52.184;8.690;2022-11-02T01:05:13;22.97;;;2.97;;
4055;SDS011;2043;52.184;8.690;2022-11-02T01:07:41;21.50;;;3.03;;
4055;SDS011;2043;52.184;8.690;2022-11-02T01:10:08;13.17;;;2.60;;
4055;SDS011;2043;52.184;8.690;2022-11-02T01:12:36;12.87;;;3.20;;
4055;SDS011;2043;52.184;8.690;2022-11-02T01:15:04;11.40;;;2.47;;
4055;SDS011;2043;52.184;8.690;2022-11-02T01:17:33;11.80;;;2.43;;
4055;SDS011;2043;52.184;8.690;2022-11-02T01:20:00;9.23;;;2.10;;
4055;SDS011;2043;52.184;8.690;2022-11-02T01:22:27;25.23;;;3.77;;
4055;SDS011;2043;52.184;8.690;2022-11-02T01:24:53;23.97;;;3.60;;
4055;SDS011;2043;52.184;8.690;2022-11-02T01:27:21;12.63;;;2.77;;
4055;SDS011;2043;52.184;8.690;2022-11-02T01:29:47;18.03;;;2.97;;
4055;SDS011;2043;52.184;8.690;2022-11-02T01:32:14;20.07;;;3.83;;
4055;SDS011;2043;52.184;8.690;2022-11-02T01:34:41;16.10;;;3.10;;
4055;SDS011;2043;52.184;8.690;2022-11-02T01:37:08;12.37;;;2.90;;
4055;SDS011;2043;52.184;8.690;2022-11-02T01:39:35;12.20;;;3.03;;
4055;SDS011;2043;52.184;8.690;2022-11-02T01:42:02;16.90;;;2.93;;
4055;SDS011;2043;52.184;8.690;2022-11-02T01:44:30;14.70;;;3.10;;
4055;SDS011;2043;52.184;8.690;2022-11-02T01:47:00;14.43;;;2.93;;
4055;SDS011;2043;52.184;8.690;2022-11-02T01:49:31;17.13;;;3.03;;
4055;SDS011;2043;52.184;8.690;2022-11-02T01:52:05;12.73;;;2.87;;
4055;SDS011;2043;52.184;8.690;2022-11-02T01:54:36;13.13;;;3.00;;
4055;SDS011;2043;52.184;8.690;2022-11-02T01:57:09;15.30;;;4.07;;
4055;SDS011;2043;52.184;8.690;2022-11-02T01:59:44;18.07;;;2.97;;
4055;SDS011;2043;52.184;8.690;2022-11-02T02:02:18;20.90;;;3.37;;
4055;SDS011;2043;52.184;8.690;2022-11-02T02:04:48;12.67;;;2.83;;
4055;SDS011;2043;52.184;8.690;2022-11-02T02:07:19;11.43;;;2.73;;
4055;SDS011;2043;52.184;8.690;2022-11-02T02:09:49;18.53;;;2.77;;
4055;SDS011;2043;52.184;8.690;2022-11-02T02:12:18;12.47;;;2.93;;
4055;SDS011;2043;52.184;8.690;2022-11-02T02:14:45;10.90;;;2.57;;
4055;SDS011;2043;52.184;8.690;2022-11-02T02:17:33;13.23;;;3.40;;
4055;SDS011;2043;52.184;8.690;2022-11-02T02:20:18;16.83;;;3.13;;
4055;SDS011;2043;52.184;8.690;2022-11-02T02:29:23;11.30;;;2.37;;
4055;SDS011;2043;52.184;8.690;2022-11-02T02:34:34;20.83;;;3.90;;
4055;SDS011;2043;52.184;8.690;2022-11-02T02:37:06;13.80;;;3.10;;
4055;SDS011;2043;52.184;8.690;2022-11-02T02:39:51;10.13;;;2.93;;
4055;SDS011;2043;52.184;8.690;2022-11-02T02:42:24;11.83;;;2.70;;
4055;SDS011;2043;52.184;8.690;2022-11-02T02:47:44;18.50;;;2.43;;
4055;SDS011;2043;52.184;8.690;2022-11-02T02:50:19;13.57;;;3.23;;
4055;SDS011;2043;52.184;8.690;2022-11-02T02:52:50;16.93;;;3.07;;
4055;SDS011;2043;52.184;8.690;2022-11-02T02:55:23;8.07;;;2.60;;
4055;SDS011;2043;52.184;8.690;2022-11-02T02:57:55;13.07;;;2.90;;
4055;SDS011;2043;52.184;8.690;2022-11-02T03:00:25;12.17;;;2.97;;
4055;SDS011;2043;52.184;8.690;2022-11-02T03:02:52;11.87;;;3.50;;
4055;SDS011;2043;52.184;8.690;2022-11-02T03:05:30;12.97;;;3.30;;
4055;SDS011;2043;52.184;8.690;2022-11-02T03:08:00;12.30;;;2.90;;
4055;SDS011;2043;52.184;8.690;2022-11-02T03:15:55;18.20;;;2.87;;
4055;SDS011;2043;52.184;8.690;2022-11-02T03:24:01;16.10;;;2.27;;
4055;SDS011;2043;52.184;8.690;2022-11-02T03:29:46;15.03;;;3.30;;
4055;SDS011;2043;52.184;8.690;2022-11-02T03:35:30;9.30;;;2.83;;
4055;SDS011;2043;52.184;8.690;2022-11-02T03:41:03;15.77;;;2.87;;
4055;SDS011;2043;52.184;8.690;2022-11-02T03:43:32;12.63;;;2.40;;
4055;SDS011;2043;52.184;8.690;2022-11-02T03:46:02;10.27;;;2.37;;
4055;SDS011;2043;52.184;8.690;2022-11-02T03:48:35;19.50;;;4.23;;
4055;SDS011;2043;52.184;8.690;2022-11-02T03:51:08;7.00;;;2.30;;
4055;SDS011;2043;52.184;8.690;2022-11-02T03:53:41;20.47;;;3.77;;
4055;SDS011;2043;52.184;8.690;2022-11-02T03:56:30;19.70;;;2.40;;
4055;SDS011;2043;52.184;8.690;2022-11-02T03:59:02;17.37;;;3.10;;
4055;SDS011;2043;52.184;8.690;2022-11-02T04:01:29;8.23;;;2.17;;
4055;SDS011;2043;52.184;8.690;2022-11-02T04:03:57;17.53;;;3.00;;
4055;SDS011;2043;52.184;8.690;2022-11-02T04:06:24;12.40;;;2.60;;
4055;SDS011;2043;52.184;8.690;2022-11-02T04:08:51;16.10;;;2.93;;
4055;SDS011;2043;52.184;8.690;2022-11-02T04:11:19;15.13;;;3.03;;
4055;SDS011;2043;52.184;8.690;2022-11-02T04:14:04;12.97;;;2.67;;
4055;SDS011;2043;52.184;8.690;2022-11-02T04:16:50;7.77;;;2.03;;
4055;SDS011;2043;52.184;8.690;2022-11-02T04:19:37;17.20;;;3.20;;
4055;SDS011;2043;52.184;8.690;2022-11-02T04:22:03;20.63;;;3.30;;
4055;SDS011;2043;52.184;8.690;2022-11-02T04:24:48;14.53;;;3.00;;
4055;SDS011;2043;52.184;8.690;2022-11-02T04:27:34;9.97;;;2.40;;
4055;SDS011;2043;52.184;8.690;2022-11-02T04:30:01;17.53;;;3.13;;
4055;SDS011;2043;52.184;8.690;2022-11-02T04:32:28;12.10;;;3.10;;
4055;SDS011;2043;52.184;8.690;2022-11-02T04:35:14;14.40;;;3.23;;
4055;SDS011;2043;52.184;8.690;2022-11-02T04:37:41;16.17;;;3.10;;
4055;SDS011;2043;52.184;8.690;2022-11-02T04:40:28;14.20;;;2.90;;
4055;SDS011;2043;52.184;8.690;2022-11-02T04:42:54;19.50;;;4.70;;
4055;SDS011;2043;52.184;8.690;2022-11-02T04:45:21;11.70;;;2.80;;
4055;SDS011;2043;52.184;8.690;2022-11-02T04:47:48;15.40;;;2.60;;
4055;SDS011;2043;52.184;8.690;2022-11-02T04:50:15;12.20;;;2.87;;
4055;SDS011;2043;52.184;8.690;2022-11-02T04:52:42;10.70;;;2.70;;
4055;SDS011;2043;52.184;8.690;2022-11-02T04:55:08;13.47;;;2.67;;
4055;SDS011;2043;52.184;8.690;2022-11-02T04:57:35;17.07;;;3.30;;
4055;SDS011;2043;52.184;8.690;2022-11-02T05:00:02;12.87;;;3.03;;
4055;SDS011;2043;52.184;8.690;2022-11-02T05:02:32;12.00;;;3.20;;
4055;SDS011;2043;52.184;8.690;2022-11-02T05:04:59;11.73;;;3.43;;
4055;SDS011;2043;52.184;8.690;2022-11-02T05:07:26;13.73;;;2.83;;
4055;SDS011;2043;52.184;8.690;2022-11-02T05:09:53;13.03;;;2.70;;
4055;SDS011;2043;52.184;8.690;2022-11-02T05:12:20;10.87;;;2.60;;
4055;SDS011;2043;52.184;8.690;2022-11-02T05:14:53;10.77;;;2.93;;
4055;SDS011;2043;52.184;8.690;2022-11-02T05:17:20;16.07;;;3.63;;
4055;SDS011;2043;52.184;8.690;2022-11-02T05:19:46;13.93;;;3.53;;
4055;SDS011;2043;52.184;8.690;2022-11-02T05:22:13;20.40;;;3.63;;
4055;SDS011;2043;52.184;8.690;2022-11-02T05:24:40;11.07;;;3.03;;
4055;SDS011;2043;52.184;8.690;2022-11-02T05:27:08;11.63;;;3.27;;
4055;SDS011;2043;52.184;8.690;2022-11-02T05:29:35;10.70;;;3.00;;
4055;SDS011;2043;52.184;8.690;2022-11-02T05:32:02;11.93;;;2.77;;
4055;SDS011;2043;52.184;8.690;2022-11-02T05:34:29;15.70;;;3.30;;
4055;SDS011;2043;52.184;8.690;2022-11-02T05:36:56;20.97;;;3.10;;
4055;SDS011;2043;52.184;8.690;2022-11-02T05:39:22;12.37;;;3.30;;
4055;SDS011;2043;52.184;8.690;2022-11-02T05:41:49;15.53;;;5.07;;
4055;SDS011;2043;52.184;8.690;2022-11-02T05:44:16;16.03;;;3.30;;
4055;SDS011;2043;52.184;8.690;2022-11-02T05:46:43;14.53;;;3.20;;
4055;SDS011;2043;52.184;8.690;2022-11-02T05:49:10;19.27;;;3.33;;
4055;SDS011;2043;52.184;8.690;2022-11-02T05:51:37;21.33;;;3.90;;
4055;SDS011;2043;52.184;8.690;2022-11-02T05:54:04;11.30;;;3.13;;
4055;SDS011;2043;52.184;8.690;2022-11-02T05:56:31;11.43;;;3.10;;
4055;SDS011;2043;52.184;8.690;2022-11-02T05:58:58;11.57;;;3.53;;
4055;SDS011;2043;52.184;8.690;2022-11-02T06:01:24;11.80;;;3.00;;
4055;SDS011;2043;52.184;8.690;2022-11-02T06:03:51;11.47;;;3.27;;
4055;SDS011;2043;52.184;8.690;2022-11-02T06:06:19;11.50;;;2.57;;
4055;SDS011;2043;52.184;8.690;2022-11-02T06:08:46;21.43;;;4.13;;
4055;SDS011;2043;52.184;8.690;2022-11-02T06:11:13;11.70;;;2.80;;
4055;SDS011;2043;52.184;8.690;2022-11-02T06:13:41;11.47;;;2.57;;
4055;SDS011;2043;52.184;8.690;2022-11-02T06:16:10;15.23;;;2.90;;
4055;SDS011;2043;52.184;8.690;2022-11-02T06:18:37;16.30;;;3.50;;
4055;SDS011;2043;52.184;8.690;2022-11-02T06:21:04;12.90;;;3.50;;
4055;SDS011;2043;52.184;8.690;2022-11-02T06:23:32;14.70;;;2.83;;
4055;SDS011;2043;52.184;8.690;2022-11-02T06:25:59;17.20;;;3.40;;
4055;SDS011;2043;52.184;8.690;2022-11-02T06:28:27;10.83;;;2.77;;
4055;SDS011;2043;52.184;8.690;2022-11-02T06:30:54;9.10;;;2.47;;
4055;SDS011;2043;52.184;8.690;2022-11-02T06:33:22;12.40;;;3.50;;
4055;SDS011;2043;52.184;8.690;2022-11-02T06:35:52;11.83;;;2.70;;
4055;SDS011;2043;52.184;8.690;2022-11-02T06:38:20;13.37;;;3.30;;
4055;SDS011;2043;52.184;8.690;2022-11-02T06:40:57;17.70;;;3.27;;
4055;SDS011;2043;52.184;8.690;2022-11-02T06:43:25;12.63;;;3.20;;
4055;SDS011;2043;52.184;8.690;2022-11-02T06:45:55;7.17;;;2.37;;
4055;SDS011;2043;52.184;8.690;2022-11-02T06:48:24;9.23;;;2.30;;
4055;SDS011;2043;52.184;8.690;2022-11-02T06:50:59;16.77;;;3.10;;
4055;SDS011;2043;52.184;8.690;2022-11-02T06:53:27;12.17;;;3.47;;
4055;SDS011;2043;52.184;8.690;2022-11-02T06:55:54;23.03;;;2.87;;
4055;SDS011;2043;52.184;8.690;2022-11-02T06:58:22;13.30;;;2.60;;
4055;SDS011;2043;52.184;8.690;2022-11-02T07:00:50;10.40;;;3.10;;
4055;SDS011;2043;52.184;8.690;2022-11-02T07:03:26;10.63;;;3.03;;
4055;SDS011;2043;52.184;8.690;2022-11-02T07:05:53;10.20;;;2.53;;
4055;SDS011;2043;52.184;8.690;2022-11-02T07:08:20;14.30;;;3.00;;
4055;SDS011;2043;52.184;8.690;2022-11-02T07:10:47;13.70;;;3.67;;
4055;SDS011;2043;52.184;8.690;2022-11-02T07:13:15;18.23;;;4.10;;
4055;SDS011;2043;52.184;8.690;2022-11-02T07:15:42;8.67;;;2.10;;
4055;SDS011;2043;52.184;8.690;2022-11-02T07:18:09;15.30;;;3.17;;
4055;SDS011;2043;52.184;8.690;2022-11-02T07:20:35;18.80;;;3.83;;
4055;SDS011;2043;52.184;8.690;2022-11-02T07:23:03;17.20;;;3.23;;
4055;SDS011;2043;52.184;8.690;2022-11-02T07:25:31;9.80;;;2.73;;
4055;SDS011;2043;52.184;8.690;2022-11-02T07:27:59;14.47;;;2.97;;
4055;SDS011;2043;52.184;8.690;2022-11-02T07:30:28;14.13;;;3.20;;
4055;SDS011;2043;52.184;8.690;2022-11-02T07:32:55;14.10;;;2.63;;
4055;SDS011;2043;52.184;8.690;2022-11-02T07:35:22;12.57;;;3.00;;
4055;SDS011;2043;52.184;8.690;2022-11-02T07:37:55;9.30;;;3.00;;
4055;SDS011;2043;52.184;8.690;2022-11-02T07:40:23;16.07;;;3.77;;
4055;SDS011;2043;52.184;8.690;2022-11-02T07:42:50;25.47;;;3.67;;
4055;SDS011;2043;52.184;8.690;2022-11-02T07:45:19;13.60;;;2.43;;
4055;SDS011;2043;52.184;8.690;2022-11-02T07:47:47;18.37;;;2.43;;
4055;SDS011;2043;52.184;8.690;2022-11-02T07:50:18;13.00;;;3.13;;
4055;SDS011;2043;52.184;8.690;2022-11-02T07:52:50;13.17;;;2.80;;
4055;SDS011;2043;52.184;8.690;2022-11-02T07:55:19;20.53;;;3.37;;
4055;SDS011;2043;52.184;8.690;2022-11-02T07:57:54;16.40;;;3.23;;
4055;SDS011;2043;52.184;8.690;2022-11-02T08:00:25;19.03;;;3.30;;
4055;SDS011;2043;52.184;8.690;2022-11-02T08:02:54;15.47;;;3.07;;
4055;SDS011;2043;52.184;8.690;2022-11-02T08:05:25;11.57;;;3.20;;
4055;SDS011;2043;52.184;8.690;2022-11-02T08:07:57;10.90;;;2.70;;
4055;SDS011;2043;52.184;8.690;2022-11-02T08:10:44;12.27;;;3.37;;
4055;SDS011;2043;52.184;8.690;2022-11-02T08:13:13;17.00;;;2.97;;
4055;SDS011;2043;52.184;8.690;2022-11-02T08:15:42;15.57;;;2.93;;
4055;SDS011;2043;52.184;8.690;2022-11-02T08:18:19;17.83;;;3.77;;
4055;SDS011;2043;52.184;8.690;2022-11-02T08:20:50;11.10;;;3.00;;
4055;SDS011;2043;52.184;8.690;2022-11-02T08:23:18;9.37;;;3.20;;
4055;SDS011;2043;52.184;8.690;2022-11-02T08:25:46;14.17;;;3.47;;
4055;SDS011;2043;52.184;8.690;2022-11-02T08:28:16;11.67;;;3.33;;
4055;SDS011;2043;52.184;8.690;2022-11-02T08:30:45;16.20;;;4.00;;
4055;SDS011;2043;52.184;8.690;2022-11-02T08:33:12;9.57;;;3.23;;
4055;SDS011;2043;52.184;8.690;2022-11-02T08:35:41;21.90;;;3.30;;
4055;SDS011;2043;52.184;8.690;2022-11-02T08:38:09;18.67;;;3.50;;
4055;SDS011;2043;52.184;8.690;2022-11-02T08:40:36;8.90;;;2.67;;
4055;SDS011;2043;52.184;8.690;2022-11-02T08:43:05;13.17;;;3.10;;
4055;SDS011;2043;52.184;8.690;2022-11-02T08:45:33;9.87;;;3.17;;
4055;SDS011;2043;52.184;8.690;2022-11-02T08:48:21;19.47;;;3.30;;
4055;SDS011;2043;52.184;8.690;2022-11-02T08:50:48;16.23;;;3.10;;
4055;SDS011;2043;52.184;8.690;2022-11-02T08:53:15;6.90;;;2.20;;
4055;SDS011;2043;52.184;8.690;2022-11-02T08:55:42;17.40;;;3.20;;
4055;SDS011;2043;52.184;8.690;2022-11-02T08:58:09;17.67;;;3.27;;
4055;SDS011;2043;52.184;8.690;2022-11-02T09:00:36;14.33;;;3.70;;
4055;SDS011;2043;52.184;8.690;2022-11-02T09:03:10;14.97;;;3.67;;
4055;SDS011;2043;52.184;8.690;2022-11-02T09:05:39;13.50;;;2.87;;
4055;SDS011;2043;52.184;8.690;2022-11-02T09:08:10;16.93;;;2.83;;
4055;SDS011;2043;52.184;8.690;2022-11-02T09:10:39;9.63;;;2.30;;
4055;SDS011;2043;52.184;8.690;2022-11-02T09:13:06;16.10;;;2.83;;
4055;SDS011;2043;52.184;8.690;2022-11-02T09:15:36;8.13;;;2.17;;
4055;SDS011;2043;52.184;8.690;2022-11-02T09:18:03;9.23;;;2.60;;
4055;SDS011;2043;52.184;8.690;2022-11-02T09:20:32;12.80;;;3.20;;
4055;SDS011;2043;52.184;8.690;2022-11-02T09:22:59;14.13;;;3.23;;
4055;SDS011;2043;52.184;8.690;2022-11-02T09:25:26;15.80;;;3.00;;
4055;SDS011;2043;52.184;8.690;2022-11-02T09:27:54;8.27;;;2.27;;
4055;SDS011;2043;52.184;8.690;2022-11-02T09:30:22;12.33;;;2.50;;
4055;SDS011;2043;52.184;8.690;2022-11-02T09:32:54;11.70;;;2.67;;
4055;SDS011;2043;52.184;8.690;2022-11-02T09:35:21;14.17;;;3.07;;
4055;SDS011;2043;52.184;8.690;2022-11-02T09:37:48;11.10;;;2.30;;
4055;SDS011;2043;52.184;8.690;2022-11-02T09:40:38;11.50;;;2.87;;
4055;SDS011;2043;52.184;8.690;2022-11-02T09:46:12;8.43;;;2.43;;
4055;SDS011;2043;52.184;8.690;2022-11-02T09:48:54;9.17;;;2.20;;
4055;SDS011;2043;52.184;8.690;2022-11-02T09:56:57;9.27;;;2.63;;
4055;SDS011;2043;52.184;8.690;2022-11-02T09:59:30;14.50;;;2.50;;
4055;SDS011;2043;52.184;8.690;2022-11-02T10:09:59;13.80;;;2.83;;
4055;SDS011;2043;52.184;8.690;2022-11-02T10:15:46;10.80;;;2.30;;
4055;SDS011;2043;52.184;8.690;2022-11-02T10:18:18;9.87;;;2.30;;
4055;SDS011;2043;52.184;8.690;2022-11-02T10:21:04;11.53;;;2.23;;
4055;SDS011;2043;52.184;8.690;2022-11-02T10:23:40;5.50;;;1.67;;
4055;SDS011;2043;52.184;8.690;2022-11-02T10:26:21;9.03;;;1.93;;
4055;SDS011;2043;52.184;8.690;2022-11-02T10:28:54;7.73;;;2.30;;
4055;SDS011;2043;52.184;8.690;2022-11-02T10:31:41;8.80;;;2.60;;
4055;SDS011;2043;52.184;8.690;2022-11-02T10:34:15;14.07;;;2.17;;
4055;SDS011;2043;52.184;8.690;2022-11-02T10:37:31;15.47;;;2.57;;
4055;SDS011;2043;52.184;8.690;2022-11-02T10:51:09;15.87;;;3.10;;
4055;SDS011;2043;52.184;8.690;2022-11-02T10:53:38;8.70;;;3.47;;
4055;SDS011;2043;52.184;8.690;2022-11-02T10:56:32;9.67;;;2.67;;
4055;SDS011;2043;52.184;8.690;2022-11-02T11:01:43;8.30;;;2.60;;
4055;SDS011;2043;52.184;8.690;2022-11-02T11:04:32;11.73;;;1.97;;
4055;SDS011;2043;52.184;8.690;2022-11-02T11:07:03;15.63;;;2.60;;
4055;SDS011;2043;52.184;8.690;2022-11-02T11:09:52;11.43;;;1.93;;
4055;SDS011;2043;52.184;8.690;2022-11-02T11:12:29;14.53;;;2.27;;
4055;SDS011;2043;52.184;8.690;2022-11-02T11:15:02;6.20;;;1.77;;
4055;SDS011;2043;52.184;8.690;2022-11-02T11:17:51;9.30;;;2.37;;
4055;SDS011;2043;52.184;8.690;2022-11-02T11:20:39;9.33;;;1.57;;
4055;SDS011;2043;52.184;8.690;2022-11-02T11:23:10;6.37;;;2.03;;
4055;SDS011;2043;52.184;8.690;2022-11-02T11:25:53;6.83;;;1.87;;
4055;SDS011;2043;52.184;8.690;2022-11-02T11:28:24;11.30;;;2.60;;
4055;SDS011;2043;52.184;8.690;2022-11-02T11:31:06;10.80;;;2.70;;
4055;SDS011;2043;52.184;8.690;2022-11-02T11:33:52;16.93;;;2.47;;
4055;SDS011;2043;52.184;8.690;2022-11-02T11:36:38;8.57;;;2.83;;
4055;SDS011;2043;52.184;8.690;2022-11-02T11:41:52;17.10;;;2.73;;
4055;SDS011;2043;52.184;8.690;2022-11-02T11:44:19;3.27;;;1.20;;
4055;SDS011;2043;52.184;8.690;2022-11-02T11:46:48;7.90;;;2.27;;
4055;SDS011;2043;52.184;8.690;2022-11-02T11:52:10;8.93;;;2.10;;
4055;SDS011;2043;52.184;8.690;2022-11-02T11:54:51;7.77;;;1.87;;
4055;SDS011;2043;52.184;8.690;2022-11-02T11:57:31;10.00;;;1.93;;
4055;SDS011;2043;52.184;8.690;2022-11-02T12:00:00;12.80;;;2.53;;
4055;SDS011;2043;52.184;8.690;2022-11-02T12:02:34;10.20;;;2.30;;
4055;SDS011;2043;52.184;8.690;2022-11-02T12:05:13;5.73;;;1.90;;
4055;SDS011;2043;52.184;8.690;2022-11-02T12:35:08;9.67;;;2.23;;
4055;SDS011;2043;52.184;8.690;2022-11-02T12:41:01;11.17;;;2.23;;
4055;SDS011;2043;52.184;8.690;2022-11-02T12:43:44;10.10;;;2.33;;
4055;SDS011;2043;52.184;8.690;2022-11-02T12:54:11;8.50;;;2.40;;
4055;SDS011;2043;52.184;8.690;2022-11-02T12:56:47;18.53;;;2.40;;
4055;SDS011;2043;52.184;8.690;2022-11-02T12:59:23;7.20;;;1.70;;
4055;SDS011;2043;52.184;8.690;2022-11-02T13:02:12;13.47;;;2.20;;
4055;SDS011;2043;52.184;8.690;2022-11-02T13:07:22;7.63;;;1.97;;
4055;SDS011;2043;52.184;8.690;2022-11-02T13:10:18;7.00;;;2.10;;
4055;SDS011;2043;52.184;8.690;2022-11-02T13:12:56;9.00;;;1.90;;
4055;SDS011;2043;52.184;8.690;2022-11-02T13:15:25;9.63;;;2.20;;
4055;SDS011;2043;52.184;8.690;2022-11-02T13:17:55;9.80;;;2.00;;
4055;SDS011;2043;52.184;8.690;2022-11-02T13:26:01;7.73;;;1.97;;
4055;SDS011;2043;52.184;8.690;2022-11-02T13:28:41;16.70;;;2.00;;
4055;SDS011;2043;52.184;8.690;2022-11-02T13:31:13;8.20;;;2.70;;
4055;SDS011;2043;52.184;8.690;2022-11-02T13:33:47;7.17;;;1.80;;
4055;SDS011;2043;52.184;8.690;2022-11-02T13:36:16;8.77;;;2.17;;
4055;SDS011;2043;52.184;8.690;2022-11-02T13:49:43;10.77;;;2.33;;
4055;SDS011;2043;52.184;8.690;2022-11-02T13:52:14;6.23;;;1.93;;
4055;SDS011;2043;52.184;8.690;2022-11-02T13:54:52;6.77;;;2.00;;
4055;SDS011;2043;52.184;8.690;2022-11-02T14:00:00;11.13;;;2.70;;
4055;SDS011;2043;52.184;8.690;2022-11-02T14:02:30;9.40;;;2.20;;
4055;SDS011;2043;52.184;8.690;2022-11-02T14:05:02;9.67;;;2.33;;
4055;SDS011;2043;52.184;8.690;2022-11-02T14:10:06;9.23;;;3.70;;
4055;SDS011;2043;52.184;8.690;2022-11-02T14:12:46;7.77;;;2.87;;
4055;SDS011;2043;52.184;8.690;2022-11-02T14:30:45;10.93;;;2.63;;
4055;SDS011;2043;52.184;8.690;2022-11-02T14:41:41;14.27;;;3.50;;
4055;SDS011;2043;52.184;8.690;2022-11-02T14:46:56;10.47;;;2.33;;
4055;SDS011;2043;52.184;8.690;2022-11-02T14:49:31;12.43;;;2.10;;
4055;SDS011;2043;52.184;8.690;2022-11-02T14:52:21;9.60;;;2.30;;
4055;SDS011;2043;52.184;8.690;2022-11-02T14:55:03;9.17;;;2.47;;
4055;SDS011;2043;52.184;8.690;2022-11-02T14:57:35;11.93;;;3.40;;
4055;SDS011;2043;52.184;8.690;2022-11-02T15:00:21;9.47;;;2.47;;
4055;SDS011;2043;52.184;8.690;2022-11-02T15:02:50;10.10;;;2.27;;
4055;SDS011;2043;52.184;8.690;2022-11-02T15:08:00;12.43;;;2.93;;
4055;SDS011;2043;52.184;8.690;2022-11-02T15:10:38;15.43;;;2.83;;
4055;SDS011;2043;52.184;8.690;2022-11-02T15:16:36;12.23;;;2.93;;
4055;SDS011;2043;52.184;8.690;2022-11-02T15:18:34;8.10;;;2.20;;
4055;SDS011;2043;52.184;8.690;2022-11-02T15:31:58;13.43;;;2.50;;
4055;SDS011;2043;52.184;8.690;2022-11-02T15:34:38;10.00;;;2.20;;
4055;SDS011;2043;52.184;8.690;2022-11-02T15:37:28;14.23;;;3.60;;
4055;SDS011;2043;52.184;8.690;2022-11-02T15:40:16;11.70;;;3.60;;
4055;SDS011;2043;52.184;8.690;2022-11-02T15:51:31;9.97;;;2.80;;
4055;SDS011;2043;52.184;8.690;2022-11-02T16:04:49;17.00;;;3.20;;
4055;SDS011;2043;52.184;8.690;2022-11-02T16:07:18;19.73;;;3.80;;
4055;SDS011;2043;52.184;8.690;2022-11-02T16:09:46;15.40;;;3.23;;
4055;SDS011;2043;52.184;8.690;2022-11-02T16:12:17;12.03;;;3.27;;
4055;SDS011;2043;52.184;8.690;2022-11-02T16:17:29;13.77;;;4.70;;
4055;SDS011;2043;52.184;8.690;2022-11-02T16:25:30;8.60;;;3.93;;
4055;SDS011;2043;52.184;8.690;2022-11-02T16:31:01;14.17;;;4.17;;
4055;SDS011;2043;52.184;8.690;2022-11-02T16:33:50;11.23;;;3.60;;
4055;SDS011;2043;52.184;8.690;2022-11-02T16:38:53;11.43;;;4.10;;
4055;SDS011;2043;52.184;8.690;2022-11-02T16:41:21;11.33;;;3.73;;
4055;SDS011;2043;52.184;8.690;2022-11-02T16:43:51;14.57;;;3.40;;
4055;SDS011;2043;52.184;8.690;2022-11-02T16:46:27;15.87;;;3.53;;
4055;SDS011;2043;52.184;8.690;2022-11-02T16:49:00;14.33;;;3.50;;
4055;SDS011;2043;52.184;8.690;2022-11-02T16:51:37;13.43;;;3.50;;
4055;SDS011;2043;52.184;8.690;2022-11-02T16:57:19;16.07;;;3.47;;
4055;SDS011;2043;52.184;8.690;2022-11-02T16:59:58;13.03;;;3.80;;
4055;SDS011;2043;52.184;8.690;2022-11-02T17:04:57;15.13;;;3.60;;
4055;SDS011;2043;52.184;8.690;2022-11-02T17:07:32;15.30;;;4.37;;
4055;SDS011;2043;52.184;8.690;2022-11-02T17:10:04;31.67;;;5.00;;
4055;SDS011;2043;52.184;8.690;2022-11-02T17:12:39;19.53;;;4.57;;
4055;SDS011;2043;52.184;8.690;2022-11-02T17:17:41;13.40;;;4.40;;
4055;SDS011;2043;52.184;8.690;2022-11-02T17:22:37;14.77;;;3.83;;
4055;SDS011;2043;52.184;8.690;2022-11-02T17:25:26;17.60;;;4.40;;
4055;SDS011;2043;52.184;8.690;2022-11-02T17:28:02;12.43;;;4.40;;
4055;SDS011;2043;52.184;8.690;2022-11-02T17:30:49;14.53;;;3.97;;
4055;SDS011;2043;52.184;8.690;2022-11-02T17:33:22;11.60;;;3.93;;
4055;SDS011;2043;52.184;8.690;2022-11-02T17:35:55;13.67;;;3.93;;
4055;SDS011;2043;52.184;8.690;2022-11-02T17:38:28;11.90;;;4.53;;
4055;SDS011;2043;52.184;8.690;2022-11-02T17:40:55;16.83;;;4.60;;
4055;SDS011;2043;52.184;8.690;2022-11-02T17:43:25;14.97;;;4.37;;
4055;SDS011;2043;52.184;8.690;2022-11-02T17:45:55;16.17;;;4.30;;
4055;SDS011;2043;52.184;8.690;2022-11-02T17:48:26;14.77;;;4.00;;
4055;SDS011;2043;52.184;8.690;2022-11-02T17:50:56;15.00;;;4.20;;
4055;SDS011;2043;52.184;8.690;2022-11-02T17:53:26;21.90;;;4.70;;
4055;SDS011;2043;52.184;8.690;2022-11-02T17:55:53;20.47;;;4.87;;
4055;SDS011;2043;52.184;8.690;2022-11-02T17:58:21;18.97;;;4.80;;
4055;SDS011;2043;52.184;8.690;2022-11-02T18:00:48;13.40;;;4.30;;
4055;SDS011;2043;52.184;8.690;2022-11-02T18:03:15;14.10;;;4.70;;
4055;SDS011;2043;52.184;8.690;2022-11-02T18:05:45;14.03;;;4.80;;
4055;SDS011;2043;52.184;8.690;2022-11-02T18:08:17;20.87;;;4.60;;
4055;SDS011;2043;52.184;8.690;2022-11-02T18:10:45;17.33;;;5.20;;
4055;SDS011;2043;52.184;8.690;2022-11-02T18:13:14;17.53;;;8.33;;
4055;SDS011;2043;52.184;8.690;2022-11-02T18:15:43;40.30;;;15.83;;
4055;SDS011;2043;52.184;8.690;2022-11-02T18:18:10;30.50;;;15.87;;
4055;SDS011;2043;52.184;8.690;2022-11-02T18:20:37;23.77;;;12.43;;
4055;SDS011;2043;52.184;8.690;2022-11-02T18:23:12;16.47;;;5.97;;
4055;SDS011;2043;52.184;8.690;2022-11-02T18:25:40;14.53;;;4.73;;
4055;SDS011;2043;52.184;8.690;2022-11-02T18:28:08;16.83;;;5.00;;
4055;SDS011;2043;52.184;8.690;2022-11-02T18:30:35;13.57;;;4.57;;
4055;SDS011;2043;52.184;8.690;2022-11-02T18:33:02;18.43;;;5.30;;
4055;SDS011;2043;52.184;8.690;2022-11-02T18:35:32;11.80;;;3.90;;
4055;SDS011;2043;52.184;8.690;2022-11-02T18:37:59;15.87;;;4.07;;
4055;SDS011;2043;52.184;8.690;2022-11-02T18:40:26;17.90;;;4.30;;
4055;SDS011;2043;52.184;8.690;2022-11-02T18:43:00;18.43;;;3.87;;
4055;SDS011;2043;52.184;8.690;2022-11-02T18:45:27;18.83;;;4.50;;
4055;SDS011;2043;52.184;8.690;2022-11-02T18:47:59;19.40;;;4.83;;
4055;SDS011;2043;52.184;8.690;2022-11-02T18:50:26;13.60;;;3.83;;
4055;SDS011;2043;52.184;8.690;2022-11-02T18:52:53;20.87;;;4.30;;
4055;SDS011;2043;52.184;8.690;2022-11-02T18:55:19;12.57;;;3.50;;
4055;SDS011;2043;52.184;8.690;2022-11-02T18:57:47;17.47;;;3.80;;
4055;SDS011;2043;52.184;8.690;2022-11-02T19:00:16;12.00;;;3.73;;
4055;SDS011;2043;52.184;8.690;2022-11-02T19:02:43;20.33;;;4.03;;
4055;SDS011;2043;52.184;8.690;2022-11-02T19:05:10;10.40;;;3.43;;
4055;SDS011;2043;52.184;8.690;2022-11-02T19:07:57;12.93;;;3.70;;
4055;SDS011;2043;52.184;8.690;2022-11-02T19:10:44;18.50;;;3.67;;
4055;SDS011;2043;52.184;8.690;2022-11-02T19:13:13;13.60;;;3.70;;